createdAt,value
2018-07-23T00:01:30.227Z,16.00
2018-07-23T00:03:58.723Z,16.00
2018-07-23T00:06:27.219Z,16.00
2018-07-23T00:08:55.648Z,16.00
2018-07-23T00:11:25.554Z,16.00
2018-07-23T00:13:54.066Z,16.00
2018-07-23T00:16:22.570Z,15.90
2018-07-23T00:18:51.022Z,15.90
2018-07-23T00:21:19.761Z,15.90
2018-07-23T00:23:48.400Z,16.00
2018-07-23T00:26:16.808Z,15.90
2018-07-23T00:28:45.426Z,15.90
2018-07-23T00:31:13.999Z,15.90
2018-07-23T00:33:42.502Z,15.90
2018-07-23T00:36:11.008Z,15.90
2018-07-23T00:38:39.902Z,15.90
2018-07-23T00:41:08.407Z,15.80
2018-07-23T00:43:36.957Z,15.80
2018-07-23T00:46:05.478Z,15.80
2018-07-23T00:48:33.899Z,15.90
2018-07-23T00:51:02.345Z,15.80
2018-07-23T00:53:30.798Z,15.80
2018-07-23T00:55:59.251Z,15.80
2018-07-23T00:58:27.686Z,15.80
2018-07-23T01:00:56.257Z,15.70
2018-07-23T01:03:24.804Z,15.70
2018-07-23T01:05:53.305Z,15.70
2018-07-23T01:08:21.991Z,15.80
2018-07-23T01:10:50.470Z,15.80
2018-07-23T01:13:18.869Z,15.80
2018-07-23T01:15:47.275Z,15.80
2018-07-23T01:18:15.730Z,15.70
2018-07-23T01:20:44.163Z,15.70
2018-07-23T01:23:12.652Z,15.80
2018-07-23T01:25:41.189Z,15.70
2018-07-23T01:28:09.603Z,15.70
2018-07-23T01:30:38.087Z,15.80
2018-07-23T01:33:06.669Z,15.70
2018-07-23T01:35:35.211Z,15.70
2018-07-23T01:38:03.752Z,15.70
2018-07-23T01:40:35.158Z,15.70
2018-07-23T01:43:03.754Z,15.70
2018-07-23T01:45:32.202Z,15.70
2018-07-23T01:48:00.660Z,15.70
2018-07-23T01:50:29.312Z,15.80
2018-07-23T01:52:58.043Z,15.80
2018-07-23T01:55:26.580Z,16.10
2018-07-23T01:57:55.133Z,16.00
2018-07-23T02:00:24.948Z,16.10
2018-07-23T02:02:53.367Z,16.20
2018-07-23T02:05:22.043Z,16.10
2018-07-23T02:07:50.631Z,15.90
2018-07-23T02:10:19.204Z,15.90
2018-07-23T02:12:48.084Z,15.80
2018-07-23T02:15:16.532Z,15.80
2018-07-23T02:17:45.024Z,15.70
2018-07-23T02:20:13.731Z,15.60
2018-07-23T02:22:42.190Z,15.60
2018-07-23T02:25:10.786Z,15.50
2018-07-23T02:27:39.322Z,15.50
2018-07-23T02:30:07.863Z,15.50
2018-07-23T02:32:36.428Z,15.40
2018-07-23T02:35:04.923Z,15.40
2018-07-23T02:37:33.417Z,15.40
2018-07-23T02:40:01.965Z,15.30
2018-07-23T02:42:30.506Z,15.30
2018-07-23T02:44:59.035Z,15.20
2018-07-23T02:47:29.259Z,15.20
2018-07-23T02:49:57.823Z,15.10
2018-07-23T02:52:26.441Z,15.10
2018-07-23T02:54:54.855Z,15.10
2018-07-23T02:57:23.427Z,15.00
2018-07-23T02:59:51.893Z,15.00
2018-07-23T03:02:20.441Z,15.00
2018-07-23T03:04:48.864Z,14.90
2018-07-23T03:07:17.381Z,15.00
2018-07-23T03:09:45.931Z,15.00
2018-07-23T03:12:20.830Z,15.00
2018-07-23T03:14:49.270Z,15.00
2018-07-23T03:17:18.987Z,15.00
2018-07-23T03:19:47.471Z,15.00
2018-07-23T03:22:15.910Z,15.10
2018-07-23T03:24:44.435Z,15.10
2018-07-23T03:27:12.957Z,15.10
2018-07-23T03:29:41.398Z,15.10
2018-07-23T03:32:10.011Z,15.10
2018-07-23T03:34:38.419Z,15.10
2018-07-23T03:37:06.864Z,15.20
2018-07-23T03:39:35.370Z,15.20
2018-07-23T03:42:03.878Z,15.20
2018-07-23T03:44:32.355Z,15.20
2018-07-23T03:47:00.842Z,15.20
2018-07-23T03:49:29.426Z,15.20
2018-07-23T03:51:57.888Z,15.20
2018-07-23T03:54:26.387Z,15.20
2018-07-23T03:56:54.964Z,15.30
2018-07-23T03:59:23.574Z,15.30
2018-07-23T04:01:52.044Z,15.40
2018-07-23T04:04:20.647Z,15.30
2018-07-23T04:06:49.598Z,15.50
2018-07-23T04:09:18.159Z,15.60
2018-07-23T04:11:46.664Z,15.60
2018-07-23T04:14:15.567Z,15.70
2018-07-23T04:16:43.988Z,15.80
2018-07-23T04:19:12.526Z,15.90
2018-07-23T04:21:40.937Z,16.00
2018-07-23T04:24:09.344Z,16.10
2018-07-23T04:26:37.860Z,16.10
2018-07-23T04:29:06.357Z,16.00
2018-07-23T04:31:35.140Z,16.10
2018-07-23T04:34:03.801Z,15.90
2018-07-23T04:36:32.567Z,15.90
2018-07-23T04:39:01.929Z,16.00
2018-07-23T04:41:30.904Z,16.10
2018-07-23T04:43:59.410Z,16.20
2018-07-23T04:46:28.610Z,16.20
2018-07-23T04:48:57.131Z,16.30
2018-07-23T04:51:25.714Z,16.30
2018-07-23T04:53:54.630Z,16.20
2018-07-23T04:56:25.203Z,16.10
2018-07-23T04:58:53.618Z,16.00
2018-07-23T05:01:22.242Z,16.10
2018-07-23T05:03:50.768Z,16.10
2018-07-23T05:06:19.187Z,16.10
2018-07-23T05:08:47.696Z,16.10
2018-07-23T05:11:16.186Z,16.20
2018-07-23T05:13:44.712Z,16.20
2018-07-23T05:16:13.160Z,16.20
2018-07-23T05:18:41.879Z,16.30
2018-07-23T05:21:10.445Z,16.30
2018-07-23T05:23:39.160Z,16.30
2018-07-23T05:26:08.272Z,16.30
2018-07-23T05:28:36.832Z,16.30
2018-07-23T05:31:05.491Z,16.30
2018-07-23T05:33:34.101Z,16.30
2018-07-23T05:36:02.603Z,16.30
2018-07-23T05:38:31.038Z,16.40
2018-07-23T05:40:59.508Z,16.40
2018-07-23T05:43:28.064Z,16.50
2018-07-23T05:45:56.650Z,16.60
2018-07-23T05:48:25.324Z,16.80
2018-07-23T05:50:53.772Z,16.90
2018-07-23T05:53:22.422Z,17.10
2018-07-23T05:55:50.993Z,17.10
2018-07-23T05:58:19.490Z,17.10
2018-07-23T06:00:47.917Z,17.10
2018-07-23T06:03:16.407Z,17.10
2018-07-23T06:05:44.824Z,17.20
2018-07-23T06:08:13.232Z,17.20
2018-07-23T06:10:41.729Z,17.30
2018-07-23T06:13:10.284Z,17.30
2018-07-23T06:15:38.728Z,17.30
2018-07-23T06:18:07.659Z,17.30
2018-07-23T06:20:36.280Z,17.20
2018-07-23T06:23:04.787Z,17.20
2018-07-23T06:25:33.306Z,17.10
2018-07-23T06:28:01.777Z,17.10
2018-07-23T06:30:30.428Z,17.10
2018-07-23T06:32:58.892Z,17.20
2018-07-23T06:35:27.371Z,17.20
2018-07-23T06:37:56.023Z,17.20
2018-07-23T06:40:24.562Z,17.20
2018-07-23T06:42:53.359Z,17.30
2018-07-23T06:45:21.942Z,17.50
2018-07-23T06:47:50.352Z,17.70
2018-07-23T06:50:19.604Z,17.80
2018-07-23T06:52:48.342Z,17.80
2018-07-23T06:55:17.460Z,17.80
2018-07-23T06:57:46.015Z,17.90
2018-07-23T07:00:14.504Z,18.00
2018-07-23T07:02:43.027Z,18.10
2018-07-23T07:05:11.465Z,18.30
2018-07-23T07:07:40.203Z,18.40
2018-07-23T07:10:08.682Z,18.50
2018-07-23T07:12:37.151Z,18.50
2018-07-23T07:15:05.936Z,18.60
2018-07-23T07:17:34.371Z,18.70
2018-07-23T07:20:02.922Z,18.70
2018-07-23T07:22:31.472Z,18.80
2018-07-23T07:24:59.941Z,18.90
2018-07-23T07:27:29.207Z,18.90
2018-07-23T07:29:57.601Z,19.00
2018-07-23T07:32:26.060Z,19.40
2018-07-23T07:37:22.927Z,19.80
2018-07-23T07:39:51.491Z,20.00
2018-07-23T07:42:22.106Z,20.20
2018-07-23T07:44:50.635Z,20.30
2018-07-23T07:47:19.090Z,20.40
2018-07-23T07:49:47.520Z,20.40
2018-07-23T07:52:16.314Z,20.40
2018-07-23T07:54:45.896Z,20.40
2018-07-23T07:57:14.555Z,20.60
2018-07-23T07:59:43.035Z,20.60
2018-07-23T08:02:11.463Z,20.60
2018-07-23T08:04:39.972Z,20.70
2018-07-23T08:07:08.534Z,20.70
2018-07-23T08:09:36.992Z,20.80
2018-07-23T08:12:05.419Z,20.90
2018-07-23T08:14:33.852Z,21.00
2018-07-23T08:17:03.106Z,21.20
2018-07-23T08:19:31.710Z,21.30
2018-07-23T08:22:00.350Z,21.40
2018-07-23T08:24:28.851Z,21.60
2018-07-23T08:29:25.558Z,21.90
2018-07-23T08:31:54.110Z,22.20
2018-07-23T08:34:22.688Z,22.30
2018-07-23T08:36:51.261Z,22.30
2018-07-23T08:39:19.812Z,22.50
2018-07-23T08:41:48.317Z,22.60
2018-07-23T08:44:17.059Z,22.80
2018-07-23T08:46:45.590Z,23.00
2018-07-23T08:49:14.340Z,23.20
2018-07-23T08:51:42.807Z,23.10
2018-07-23T08:54:11.360Z,23.30
2018-07-23T08:56:39.866Z,23.50
2018-07-23T08:59:08.730Z,23.80
2018-07-23T09:01:37.360Z,24.00
2018-07-23T09:04:06.524Z,24.20
2018-07-23T09:06:35.131Z,24.60
2018-07-23T09:09:04.528Z,24.60
2018-07-23T09:11:33.105Z,24.60
2018-07-23T09:14:01.549Z,24.50
2018-07-23T09:16:30.067Z,24.20
2018-07-23T09:18:58.535Z,24.20
2018-07-23T09:21:27.060Z,24.30
2018-07-23T09:23:55.741Z,24.50
2018-07-23T09:26:24.261Z,24.40
2018-07-23T09:28:53.990Z,24.60
2018-07-23T09:31:22.777Z,24.80
2018-07-23T09:33:51.242Z,24.80
2018-07-23T09:36:19.742Z,24.60
2018-07-23T09:38:48.579Z,24.50
2018-07-23T09:41:17.048Z,24.50
2018-07-23T09:43:45.602Z,24.60
2018-07-23T09:46:14.139Z,24.70
2018-07-23T09:48:42.610Z,24.50
2018-07-23T09:51:11.098Z,24.50
2018-07-23T09:53:39.575Z,24.20
2018-07-23T09:56:08.583Z,24.20
2018-07-23T09:58:37.126Z,24.20
2018-07-23T10:01:12.015Z,24.30
2018-07-23T10:03:41.383Z,24.60
2018-07-23T10:08:37.879Z,24.60
2018-07-23T10:13:34.752Z,24.20
2018-07-23T10:18:31.392Z,24.20
2018-07-23T10:20:59.944Z,24.20
2018-07-23T10:23:28.825Z,24.40
2018-07-23T10:25:57.412Z,24.60
2018-07-23T10:28:26.122Z,24.70
2018-07-23T10:30:54.579Z,24.50
2018-07-23T10:33:23.021Z,24.30
2018-07-23T10:35:51.478Z,24.30
2018-07-23T10:38:19.942Z,24.40
2018-07-23T10:40:48.401Z,24.70
2018-07-23T10:43:16.949Z,24.70
2018-07-23T10:45:45.510Z,24.60
2018-07-23T10:48:14.036Z,24.40
2018-07-23T10:50:42.528Z,24.20
2018-07-23T10:53:11.073Z,24.20
2018-07-23T10:55:39.607Z,24.20
2018-07-23T11:00:36.334Z,24.10
2018-07-23T11:03:04.800Z,24.20
2018-07-23T11:05:33.629Z,24.50
2018-07-23T11:10:30.486Z,25.10
2018-07-23T11:12:58.964Z,25.50
2018-07-23T11:15:27.415Z,25.80
2018-07-23T11:17:55.945Z,26.00
2018-07-23T11:20:24.396Z,26.10
2018-07-23T11:22:52.862Z,25.70
2018-07-23T11:25:39.087Z,25.80
2018-07-23T11:27:49.975Z,25.80
2018-07-23T11:30:18.419Z,25.70
2018-07-23T11:32:46.889Z,25.80
2018-07-23T11:35:15.492Z,25.80
2018-07-23T11:40:12.391Z,26.20
2018-07-23T11:42:40.971Z,25.90
2018-07-23T11:45:09.575Z,25.80
2018-07-23T11:47:38.041Z,25.80
2018-07-23T11:50:06.752Z,25.70
2018-07-23T11:52:35.430Z,25.60
2018-07-23T11:55:03.925Z,25.50
2018-07-23T11:57:32.371Z,25.40
2018-07-23T12:00:01.073Z,25.40
2018-07-23T12:02:29.512Z,25.40
2018-07-23T12:04:58.167Z,25.40
2018-07-23T12:09:54.870Z,25.50
2018-07-23T12:12:23.394Z,25.60
2018-07-23T12:14:51.827Z,26.00
2018-07-23T12:17:21.740Z,26.50
2018-07-23T12:19:50.358Z,27.10
2018-07-23T12:22:18.899Z,27.50
2018-07-23T12:24:47.378Z,27.80
2018-07-23T12:27:15.847Z,28.00
2018-07-23T12:29:44.327Z,28.00
2018-07-23T12:32:12.899Z,28.10
2018-07-23T12:34:41.964Z,28.40
2018-07-23T12:37:10.515Z,28.50
2018-07-23T12:39:39.125Z,28.50
2018-07-23T12:42:07.575Z,28.30
2018-07-23T12:44:36.032Z,27.90
2018-07-23T12:47:04.574Z,28.00
2018-07-23T12:49:33.010Z,28.20
2018-07-23T12:52:02.191Z,28.50
2018-07-23T12:54:30.699Z,28.80
2018-07-23T12:56:59.279Z,28.90
2018-07-23T12:59:27.866Z,28.90
2018-07-23T13:01:56.446Z,28.80
2018-07-23T13:04:24.871Z,28.80
2018-07-23T13:06:53.998Z,28.90
2018-07-23T13:09:22.551Z,28.80
2018-07-23T13:11:51.016Z,28.20
2018-07-23T13:14:19.603Z,27.90
2018-07-23T13:16:48.149Z,27.80
2018-07-23T13:19:16.603Z,27.90
2018-07-23T13:21:45.007Z,27.90
2018-07-23T13:24:13.474Z,28.00
2018-07-23T13:26:42.085Z,27.90
2018-07-23T13:29:10.954Z,28.00
2018-07-23T13:31:39.479Z,28.20
2018-07-23T13:34:07.934Z,28.40
2018-07-23T13:36:37.071Z,28.70
2018-07-23T13:39:08.887Z,28.70
2018-07-23T13:41:37.492Z,28.60
2018-07-23T13:44:06.015Z,28.50
2018-07-23T13:46:34.601Z,28.40
2018-07-23T13:49:03.305Z,28.20
2018-07-23T13:51:31.748Z,28.10
2018-07-23T13:54:01.755Z,28.10
2018-07-23T13:56:30.264Z,27.90
2018-07-23T13:58:59.176Z,28.00
2018-07-23T14:01:27.704Z,28.10
2018-07-23T14:03:56.213Z,28.30
2018-07-23T14:06:24.868Z,28.30
2018-07-23T14:08:53.354Z,28.10
2018-07-23T14:11:21.851Z,28.00
2018-07-23T14:13:50.325Z,27.80
2018-07-23T14:16:18.795Z,27.80
2018-07-23T14:18:47.504Z,27.70
2018-07-23T14:21:16.032Z,27.50
2018-07-23T14:23:44.524Z,28.20
2018-07-23T14:26:12.991Z,28.90
2018-07-23T14:28:42.293Z,29.60
2018-07-23T14:31:10.930Z,30.20
2018-07-23T14:33:39.531Z,30.70
2018-07-23T14:36:08.250Z,31.10
2018-07-23T14:38:36.892Z,31.20
2018-07-23T14:41:05.399Z,31.50
2018-07-23T14:43:33.860Z,31.70
2018-07-23T14:46:02.564Z,32.30
2018-07-23T14:50:59.242Z,33.20
2018-07-23T14:53:27.848Z,33.70
2018-07-23T14:55:56.294Z,34.10
2018-07-23T14:58:24.726Z,33.90
2018-07-23T15:00:53.399Z,34.80
2018-07-23T15:03:22.056Z,35.80
2018-07-23T15:05:50.635Z,35.90
2018-07-23T15:08:19.225Z,36.10
2018-07-23T15:10:47.887Z,36.10
2018-07-23T15:13:16.522Z,36.40
2018-07-23T15:15:45.724Z,37.00
2018-07-23T15:18:14.562Z,36.90
2018-07-23T15:20:43.722Z,37.30
2018-07-23T15:23:12.451Z,37.20
2018-07-23T15:25:41.383Z,37.00
2018-07-23T15:28:09.931Z,37.30
2018-07-23T15:30:38.535Z,37.40
2018-07-23T15:33:07.261Z,36.90
2018-07-23T15:35:36.084Z,36.20
2018-07-23T15:38:04.887Z,36.60
2018-07-23T15:40:33.742Z,36.60
2018-07-23T15:43:02.414Z,36.70
2018-07-23T15:45:31.674Z,36.40
2018-07-23T15:48:00.342Z,37.10
2018-07-23T15:50:29.331Z,37.50
2018-07-23T15:52:58.018Z,37.00
2018-07-23T15:55:27.430Z,37.10
2018-07-23T15:57:56.083Z,37.30
2018-07-23T16:00:26.079Z,36.80
2018-07-23T16:02:54.658Z,35.00
2018-07-23T16:05:23.177Z,33.70
2018-07-23T16:07:51.663Z,32.40
2018-07-23T16:10:20.351Z,31.60
2018-07-23T16:12:48.978Z,30.90
2018-07-23T16:15:17.648Z,30.50
2018-07-23T16:17:46.312Z,30.00
2018-07-23T16:20:14.994Z,29.80
2018-07-23T16:22:43.690Z,29.50
2018-07-23T16:25:12.474Z,29.40
2018-07-23T16:27:40.951Z,29.30
2018-07-23T16:30:10.064Z,29.20
2018-07-23T16:32:38.603Z,28.90
2018-07-23T16:35:09.070Z,28.70
2018-07-23T16:37:37.757Z,28.50
2018-07-23T16:40:06.523Z,28.50
2018-07-23T16:42:35.321Z,28.40
2018-07-23T16:45:03.918Z,28.90
2018-07-23T16:47:33.379Z,29.80
2018-07-23T16:50:01.877Z,30.40
2018-07-23T16:52:30.553Z,31.20
2018-07-23T16:54:59.151Z,31.20
2018-07-23T16:57:27.663Z,31.30
2018-07-23T16:59:56.227Z,31.90
2018-07-23T17:02:24.881Z,32.30
2018-07-23T17:04:55.022Z,32.30
2018-07-23T17:07:23.539Z,32.30
2018-07-23T17:09:52.297Z,32.40
2018-07-23T17:12:20.806Z,32.50
2018-07-23T17:14:49.296Z,32.90
2018-07-23T17:17:17.850Z,32.60
2018-07-23T17:19:46.384Z,32.70
2018-07-23T17:22:14.886Z,33.00
2018-07-23T17:24:43.556Z,32.50
2018-07-23T17:27:12.243Z,32.10
2018-07-23T17:29:41.138Z,32.30
2018-07-23T17:32:09.651Z,32.60
2018-07-23T17:34:38.205Z,32.50
2018-07-23T17:37:06.741Z,32.50
2018-07-23T17:39:35.311Z,32.20
2018-07-23T17:42:03.901Z,32.10
2018-07-23T17:44:32.691Z,32.20
2018-07-23T17:47:01.146Z,32.30
2018-07-23T17:49:29.778Z,31.90
2018-07-23T17:51:58.227Z,31.50
2018-07-23T17:54:26.760Z,31.10
2018-07-23T17:56:55.422Z,30.50
2018-07-23T17:59:23.887Z,29.70
2018-07-23T18:01:53.780Z,28.80
2018-07-23T18:04:22.516Z,28.30
2018-07-23T18:06:51.059Z,27.80
2018-07-23T18:09:19.665Z,27.40
2018-07-23T18:11:48.196Z,27.20
2018-07-23T18:14:16.836Z,26.80
2018-07-23T18:16:45.748Z,26.60
2018-07-23T18:19:14.199Z,26.30
2018-07-23T18:21:44.402Z,26.00
2018-07-23T18:24:12.987Z,25.80
2018-07-23T18:26:41.664Z,25.50
2018-07-23T18:29:10.491Z,25.30
2018-07-23T18:31:39.118Z,25.10
2018-07-23T18:34:08.011Z,24.80
2018-07-23T18:36:36.529Z,24.50
2018-07-23T18:39:08.585Z,24.10
2018-07-23T18:41:37.503Z,23.80
2018-07-23T18:44:06.207Z,23.60
2018-07-23T18:46:34.796Z,23.40
2018-07-23T18:49:24.841Z,23.40
2018-07-23T18:51:54.252Z,23.30
2018-07-23T18:54:24.027Z,23.20
2018-07-23T18:56:54.165Z,23.00
2018-07-23T18:59:23.080Z,22.70
2018-07-23T19:04:20.981Z,22.20
2018-07-23T19:06:50.151Z,22.00
2018-07-23T19:09:19.875Z,21.90
2018-07-23T19:11:49.727Z,21.80
2018-07-23T19:14:18.762Z,21.50
2018-07-23T19:16:47.863Z,21.40
2018-07-23T19:19:16.438Z,21.20
2018-07-23T19:21:45.008Z,21.00
2018-07-23T19:24:13.571Z,20.90
2018-07-23T19:26:42.207Z,20.80
2018-07-23T19:29:10.813Z,20.70
2018-07-23T19:31:39.606Z,20.60
2018-07-23T19:34:09.583Z,20.40
2018-07-23T19:36:38.103Z,20.30
2018-07-23T19:39:09.089Z,20.20
2018-07-23T19:41:38.287Z,20.10
2018-07-23T19:44:07.496Z,20.00
2018-07-23T19:46:36.015Z,19.80
2018-07-23T19:49:04.738Z,19.80
2018-07-23T19:51:33.494Z,19.70
2018-07-23T19:54:02.111Z,19.60
2018-07-23T19:56:30.799Z,19.40
2018-07-23T19:58:59.286Z,19.30
2018-07-23T20:01:28.009Z,19.20
2018-07-23T20:03:56.528Z,19.00
2018-07-23T20:06:26.262Z,19.00
2018-07-23T20:08:56.045Z,19.00
2018-07-23T20:11:25.363Z,18.90
2018-07-23T20:13:54.151Z,18.70
2018-07-23T20:16:23.459Z,18.70
2018-07-23T20:18:51.999Z,18.50
2018-07-23T20:21:20.645Z,18.40
2018-07-23T20:23:49.294Z,18.30
2018-07-23T20:26:17.947Z,18.20
2018-07-23T20:28:46.403Z,18.20
2018-07-23T20:31:15.017Z,18.10
2018-07-23T20:33:44.989Z,18.00
2018-07-23T20:36:13.720Z,17.80
2018-07-23T20:38:42.235Z,17.80
2018-07-23T20:41:10.901Z,17.70
2018-07-23T20:43:39.606Z,17.70
2018-07-23T20:48:36.167Z,17.60
2018-07-23T20:51:04.647Z,17.50
2018-07-23T20:53:33.173Z,17.50
2018-07-23T20:56:01.599Z,17.40
2018-07-23T20:58:30.115Z,17.40
2018-07-23T21:00:59.022Z,17.30
2018-07-23T21:03:27.699Z,17.30
2018-07-23T21:05:56.266Z,17.40
2018-07-23T21:08:24.865Z,17.30
2018-07-23T21:10:53.358Z,17.30
2018-07-23T21:13:21.854Z,17.20
2018-07-23T21:15:50.631Z,17.10
2018-07-23T21:18:19.112Z,17.00
2018-07-23T21:20:47.536Z,17.00
2018-07-23T21:23:16.043Z,16.90
2018-07-23T21:25:44.619Z,16.80
2018-07-23T21:28:13.240Z,16.70
2018-07-23T21:30:41.727Z,16.60
2018-07-23T21:33:10.252Z,16.70
2018-07-23T21:35:38.779Z,16.70
2018-07-23T21:38:07.330Z,16.60
2018-07-23T21:40:35.834Z,16.50
2018-07-23T21:43:04.411Z,16.40
2018-07-23T21:45:33.047Z,16.30
2018-07-23T21:48:01.897Z,16.40
2018-07-23T21:50:30.513Z,16.40
2018-07-23T21:52:59.163Z,16.40
2018-07-23T21:55:27.705Z,16.40
2018-07-23T21:57:56.210Z,16.30
2018-07-23T22:00:24.807Z,16.30
2018-07-23T22:02:54.960Z,16.20
2018-07-23T22:05:23.447Z,16.20
2018-07-23T22:07:52.191Z,16.00
2018-07-23T22:10:20.625Z,16.00
2018-07-23T22:12:49.213Z,15.90
2018-07-23T22:15:17.680Z,15.90
2018-07-23T22:17:46.405Z,15.80
2018-07-23T22:20:14.990Z,15.80
2018-07-23T22:22:43.458Z,15.80
2018-07-23T22:25:13.351Z,15.80
2018-07-23T22:27:42.058Z,15.80
2018-07-23T22:30:10.579Z,15.70
2018-07-23T22:32:39.036Z,15.60
2018-07-23T22:35:08.525Z,15.50
2018-07-23T22:37:37.086Z,15.50
2018-07-23T22:40:05.668Z,15.50
2018-07-23T22:42:34.124Z,15.40
2018-07-23T22:45:02.736Z,15.40
2018-07-23T22:47:31.551Z,15.40
2018-07-23T22:50:00.083Z,15.30
2018-07-23T22:52:28.642Z,15.30
2018-07-23T22:54:58.238Z,15.10
2018-07-23T22:57:26.708Z,15.10
2018-07-23T22:59:55.177Z,15.10
2018-07-23T23:02:23.750Z,15.10
2018-07-23T23:04:52.316Z,15.10
2018-07-23T23:07:20.767Z,15.00
2018-07-23T23:09:49.658Z,15.00
2018-07-23T23:12:18.282Z,15.00
2018-07-23T23:14:46.752Z,14.90
2018-07-23T23:17:15.234Z,15.00
2018-07-23T23:19:43.707Z,15.00
2018-07-23T23:22:12.162Z,14.90
2018-07-23T23:24:40.720Z,14.80
2018-07-23T23:27:09.466Z,14.80
2018-07-23T23:29:37.937Z,14.80
2018-07-23T23:32:06.362Z,14.80
2018-07-23T23:34:35.279Z,14.80
2018-07-23T23:37:04.432Z,14.80
2018-07-23T23:39:33.098Z,14.70
2018-07-23T23:42:02.262Z,14.60
2018-07-23T23:44:30.841Z,14.60
2018-07-23T23:46:59.323Z,14.60
2018-07-23T23:49:28.008Z,14.50
2018-07-23T23:51:56.622Z,14.50
2018-07-23T23:54:25.252Z,14.50
2018-07-23T23:56:53.729Z,14.40
2018-07-23T23:59:22.242Z,14.30
